East Hills, New York
Current Conditions -  °F | °C
As of 11:51 PM on Tuesday 25 Nov 2014 (Local Time) from KLGA Reporting Station
Overcast Overcast  
Wind Chill: 51°   Ceiling: 14000
Heat Index: 51°   Visibility: 10mi
Dew Point: 28°   Wind: 7mph
Humidity: 41%   Direction: 290°WNW
Pressure: 30.16"   Gusts: NA
Location:  40.8044°N, 73.641°W
Report Text: KLGA 260451Z 29006KT 10SM OVC140 11/M02 A3016 RMK AO2 SLP211 T01061022 401940106
Loading
Personal Weather Stations






























Interactive Weather Map New forecast layout! Learn more

10-Day Weather Forecast

Advertisements
Track Severe Weather on mobile